createdAt,value
2022-12-12T00:01:19.032Z,66.40
2022-12-12T00:03:46.930Z,66.45
2022-12-12T00:06:15.254Z,66.46
2022-12-12T00:08:42.945Z,66.05
2022-12-12T00:11:11.850Z,65.92
2022-12-12T00:13:41.447Z,66.66
2022-12-12T00:16:10.675Z,66.21
2022-12-12T00:18:38.900Z,65.91
2022-12-12T00:21:08.939Z,66.17
2022-12-12T00:23:36.637Z,64.82
2022-12-12T00:26:06.629Z,65.73
2022-12-12T00:28:34.727Z,65.86
2022-12-12T00:31:03.733Z,65.01
2022-12-12T00:33:31.452Z,64.52
2022-12-12T00:35:59.127Z,64.77
2022-12-12T00:38:26.832Z,64.83
2022-12-12T00:40:57.541Z,64.46
2022-12-12T00:43:25.844Z,64.68
2022-12-12T00:45:53.775Z,64.44
2022-12-12T00:48:22.779Z,64.86
2022-12-12T00:50:50.479Z,64.60
2022-12-12T00:53:18.172Z,64.14
2022-12-12T00:55:45.780Z,64.24
2022-12-12T00:58:13.506Z,64.65
2022-12-12T01:00:42.181Z,64.35
2022-12-12T01:03:09.882Z,65.33
2022-12-12T01:05:39.075Z,64.63
2022-12-12T01:08:06.697Z,65.00
2022-12-12T01:10:34.484Z,65.17
2022-12-12T01:13:02.158Z,65.24
2022-12-12T01:15:29.764Z,65.15
2022-12-12T01:17:57.444Z,65.22
2022-12-12T01:20:27.494Z,64.83
2022-12-12T01:22:56.820Z,64.81
2022-12-12T01:25:24.488Z,65.81
2022-12-12T01:27:52.231Z,65.60
2022-12-12T01:30:23.268Z,65.59
2022-12-12T01:32:51.048Z,65.87
2022-12-12T01:35:19.033Z,66.11
2022-12-12T01:37:46.640Z,66.43
2022-12-12T01:40:18.877Z,65.65
2022-12-12T01:42:47.112Z,65.45
2022-12-12T01:45:52.230Z,64.93
2022-12-12T01:48:20.076Z,65.54
2022-12-12T01:50:47.950Z,64.52
2022-12-12T01:53:19.046Z,65.35
2022-12-12T01:55:50.402Z,65.10
2022-12-12T01:58:18.880Z,64.92
2022-12-12T02:00:47.076Z,64.74
2022-12-12T02:03:14.783Z,64.95
2022-12-12T02:05:47.729Z,64.46
2022-12-12T02:08:17.138Z,64.63
2022-12-12T02:10:45.465Z,64.57
2022-12-12T02:13:18.264Z,64.48
2022-12-12T02:15:55.681Z,64.61
2022-12-12T02:18:30.927Z,64.87
2022-12-12T02:21:09.838Z,64.45
2022-12-12T02:24:04.077Z,64.55
2022-12-12T02:27:13.696Z,63.82
2022-12-12T02:30:20.354Z,63.43
2022-12-12T02:33:11.748Z,63.87
2022-12-12T02:35:51.216Z,63.61
2022-12-12T02:38:28.858Z,63.65
2022-12-12T02:41:06.981Z,64.62
2022-12-12T02:43:41.475Z,64.84
2022-12-12T02:46:15.525Z,64.47
2022-12-12T02:48:51.686Z,64.57
2022-12-12T02:51:20.550Z,63.93
2022-12-12T02:53:48.219Z,64.22
2022-12-12T02:56:43.462Z,64.00
2022-12-12T02:59:13.688Z,63.82
2022-12-12T03:01:51.442Z,64.06
2022-12-12T03:04:44.027Z,63.92
2022-12-12T03:07:36.440Z,64.10
2022-12-12T03:10:10.100Z,63.21
2022-12-12T03:12:44.272Z,62.71
2022-12-12T03:15:18.189Z,62.89
2022-12-12T03:17:51.888Z,63.45
2022-12-12T03:20:26.961Z,63.05
2022-12-12T03:22:59.050Z,62.63
2022-12-12T03:25:34.430Z,62.71
2022-12-12T03:28:06.627Z,62.68
2022-12-12T03:30:40.715Z,62.71
2022-12-12T03:33:17.562Z,62.88
2022-12-12T03:35:51.402Z,63.24
2022-12-12T03:38:23.383Z,63.18
2022-12-12T03:40:55.420Z,63.17
2022-12-12T03:43:26.554Z,63.54
2022-12-12T03:46:00.113Z,63.53
2022-12-12T03:48:30.859Z,63.46
2022-12-12T03:51:04.688Z,63.47
2022-12-12T03:53:37.491Z,63.31
2022-12-12T03:56:11.318Z,63.21
2022-12-12T03:58:45.734Z,63.51
2022-12-12T04:01:15.339Z,63.11
2022-12-12T04:03:52.468Z,62.67
2022-12-12T04:06:30.235Z,63.46
2022-12-12T04:09:18.882Z,63.14
2022-12-12T04:12:15.755Z,63.55
2022-12-12T04:15:04.819Z,63.54
2022-12-12T04:17:39.852Z,63.37
2022-12-12T04:20:39.928Z,63.20
2022-12-12T04:23:20.178Z,63.31
2022-12-12T04:26:16.788Z,63.19
2022-12-12T04:28:51.639Z,63.29
2022-12-12T04:31:25.058Z,64.40
2022-12-12T04:33:57.413Z,64.49
2022-12-12T04:36:26.589Z,63.86
2022-12-12T04:38:57.615Z,64.14
2022-12-12T04:41:27.360Z,64.32
2022-12-12T04:44:02.363Z,65.05
2022-12-12T04:46:34.115Z,65.10
2022-12-12T04:49:06.252Z,64.93
2022-12-12T04:51:36.223Z,64.61
2022-12-12T04:54:11.940Z,64.76
2022-12-12T04:56:42.441Z,64.99
2022-12-12T04:59:10.341Z,65.09
2022-12-12T05:01:52.828Z,64.61
2022-12-12T05:04:27.888Z,64.61
2022-12-12T05:07:00.292Z,64.99
2022-12-12T05:09:29.445Z,64.31
2022-12-12T05:11:57.125Z,64.14
2022-12-12T05:14:24.734Z,64.29
2022-12-12T05:16:55.272Z,65.04
2022-12-12T05:19:22.921Z,63.93
2022-12-12T05:21:51.563Z,63.96
2022-12-12T05:24:19.183Z,64.90
2022-12-12T05:26:48.223Z,64.91
2022-12-12T05:29:15.827Z,64.22
2022-12-12T05:31:43.492Z,64.11
2022-12-12T05:34:11.090Z,63.79
2022-12-12T05:36:38.827Z,63.69
2022-12-12T05:39:06.504Z,63.14
2022-12-12T05:41:34.109Z,62.66
2022-12-12T05:44:03.077Z,62.44
2022-12-12T05:46:30.790Z,63.38
2022-12-12T05:48:58.412Z,62.74
2022-12-12T05:51:26.067Z,63.78
2022-12-12T05:53:53.720Z,63.38
2022-12-12T05:56:21.337Z,63.10
2022-12-12T05:58:48.935Z,62.81
2022-12-12T06:01:17.925Z,63.80
2022-12-12T06:03:45.570Z,63.94
2022-12-12T06:06:13.248Z,63.97
2022-12-12T06:08:40.942Z,63.24
2022-12-12T06:11:08.891Z,63.76
2022-12-12T06:13:37.909Z,63.64
2022-12-12T06:16:09.957Z,63.92
2022-12-12T06:18:39.141Z,64.79
2022-12-12T06:21:09.459Z,65.02
2022-12-12T06:23:38.248Z,64.57
2022-12-12T06:26:06.843Z,64.02
2022-12-12T06:28:34.564Z,63.88
2022-12-12T06:31:04.555Z,64.05
2022-12-12T06:33:35.803Z,64.75
2022-12-12T06:36:07.110Z,64.49
2022-12-12T06:38:35.517Z,63.98
2022-12-12T06:41:06.966Z,64.37
2022-12-12T06:43:34.727Z,63.78
2022-12-12T06:46:03.880Z,64.30
2022-12-12T06:48:32.650Z,64.46
2022-12-12T06:51:00.701Z,64.27
2022-12-12T06:53:29.657Z,64.35
2022-12-12T06:55:57.256Z,64.19
2022-12-12T06:58:24.871Z,64.19
2022-12-12T07:00:53.120Z,63.52
2022-12-12T07:03:21.090Z,63.56
2022-12-12T07:05:48.749Z,64.50
2022-12-12T07:08:17.289Z,64.64
2022-12-12T07:10:46.311Z,63.81
2022-12-12T07:13:15.772Z,64.32
2022-12-12T07:15:45.166Z,64.18
2022-12-12T07:18:14.537Z,64.03
2022-12-12T07:20:43.174Z,64.76
2022-12-12T07:23:11.888Z,63.51
2022-12-12T07:29:29.752Z,64.13
2022-12-12T07:31:57.584Z,64.07
2022-12-12T07:34:25.341Z,63.64
2022-12-12T07:36:55.429Z,63.86
2022-12-12T07:39:26.997Z,62.77
2022-12-12T07:41:55.000Z,63.30
2022-12-12T07:44:22.624Z,62.95
2022-12-12T07:46:51.766Z,63.41
2022-12-12T07:49:19.745Z,63.42
2022-12-12T07:51:49.362Z,62.41
2022-12-12T07:54:59.401Z,62.09
2022-12-12T07:57:27.073Z,62.44
2022-12-12T08:03:21.483Z,62.12
2022-12-12T08:05:49.650Z,61.96
2022-12-12T08:08:54.211Z,62.51
2022-12-12T08:11:33.416Z,62.23
2022-12-12T08:14:01.065Z,63.06
2022-12-12T08:16:55.389Z,62.74
2022-12-12T08:20:04.221Z,62.80
2022-12-12T08:22:33.788Z,62.60
2022-12-12T08:25:05.172Z,63.04
2022-12-12T08:27:34.462Z,62.50
2022-12-12T08:30:02.135Z,62.15
2022-12-12T08:32:30.078Z,62.48
2022-12-12T08:35:00.199Z,62.72
2022-12-12T08:37:28.149Z,61.55
2022-12-12T08:39:55.980Z,61.40
2022-12-12T08:42:23.921Z,61.99
2022-12-12T08:44:51.579Z,61.88
2022-12-12T08:47:19.207Z,62.85
2022-12-12T08:49:46.899Z,61.94
2022-12-12T08:52:18.020Z,62.27
2022-12-12T08:54:47.586Z,62.12
2022-12-12T08:57:15.933Z,62.03
2022-12-12T08:59:43.570Z,61.69
2022-12-12T09:02:13.074Z,61.39
2022-12-12T09:04:41.045Z,61.92
2022-12-12T09:07:23.690Z,61.70
2022-12-12T09:09:59.627Z,61.95
2022-12-12T09:12:27.493Z,61.54
2022-12-12T09:14:55.119Z,62.01
2022-12-12T09:17:23.074Z,61.67
2022-12-12T09:19:53.473Z,61.38
2022-12-12T09:22:21.264Z,61.83
2022-12-12T09:24:48.998Z,61.11
2022-12-12T09:27:19.893Z,61.29
2022-12-12T09:29:49.243Z,61.47
2022-12-12T09:32:22.777Z,61.54
2022-12-12T09:34:52.488Z,61.33
2022-12-12T09:37:20.359Z,60.77
2022-12-12T09:40:10.722Z,61.10
2022-12-12T09:42:47.702Z,61.39
2022-12-12T09:45:15.815Z,60.59
2022-12-12T09:47:47.767Z,60.35
2022-12-12T09:50:23.103Z,60.62
2022-12-12T09:52:51.288Z,61.50
2022-12-12T09:55:38.512Z,60.91
2022-12-12T09:58:36.463Z,59.84
2022-12-12T10:01:24.315Z,59.56
2022-12-12T10:04:04.411Z,59.62
2022-12-12T10:06:41.654Z,60.30
2022-12-12T10:09:28.531Z,60.86
2022-12-12T10:12:02.160Z,60.31
2022-12-12T10:14:42.076Z,60.32
2022-12-12T10:17:16.327Z,59.91
2022-12-12T10:19:50.858Z,59.32
2022-12-12T10:22:27.022Z,59.54
2022-12-12T10:24:59.089Z,60.17
2022-12-12T10:27:26.721Z,59.67
2022-12-12T10:30:02.700Z,60.29
2022-12-12T10:32:41.782Z,58.27
2022-12-12T10:35:26.509Z,58.33
2022-12-12T10:38:07.993Z,58.06
2022-12-12T10:40:52.124Z,58.87
2022-12-12T10:43:23.450Z,57.24
2022-12-12T10:46:10.204Z,57.13
2022-12-12T10:48:37.999Z,57.57
2022-12-12T10:51:08.808Z,57.77
2022-12-12T10:53:36.527Z,57.30
2022-12-12T10:56:09.271Z,57.67
2022-12-12T10:58:38.948Z,54.98
2022-12-12T11:01:15.553Z,56.61
2022-12-12T11:03:47.509Z,55.31
2022-12-12T11:06:19.580Z,53.99
2022-12-12T11:08:56.016Z,55.32
2022-12-12T11:11:26.175Z,55.73
2022-12-12T11:13:55.879Z,54.55
2022-12-12T11:16:27.036Z,54.78
2022-12-12T11:19:01.032Z,53.19
2022-12-12T11:21:29.829Z,54.82
2022-12-12T11:23:59.158Z,55.46
2022-12-12T11:26:29.144Z,55.24
2022-12-12T11:28:59.533Z,55.74
2022-12-12T11:31:31.364Z,56.36
2022-12-12T11:34:02.161Z,55.52
2022-12-12T11:36:34.130Z,54.67
2022-12-12T11:39:14.080Z,55.73
2022-12-12T11:42:00.820Z,56.39
2022-12-12T11:44:34.461Z,53.01
2022-12-12T11:47:24.071Z,52.23
2022-12-12T11:49:53.726Z,54.01
2022-12-12T11:52:23.822Z,54.66
2022-12-12T11:54:52.749Z,51.21
2022-12-12T11:57:38.457Z,52.69
2022-12-12T12:00:13.935Z,52.40
2022-12-12T12:03:22.390Z,52.90
2022-12-12T12:06:02.426Z,52.63
2022-12-12T12:08:41.954Z,53.76
2022-12-12T12:11:23.700Z,55.00
2022-12-12T12:14:21.180Z,54.56
2022-12-12T12:16:57.663Z,50.39
2022-12-12T12:19:34.266Z,52.57
2022-12-12T12:22:11.273Z,53.08
2022-12-12T12:25:24.197Z,52.04
2022-12-12T12:28:01.878Z,53.10
2022-12-12T12:30:35.526Z,54.16
2022-12-12T12:33:34.432Z,53.96
2022-12-12T12:36:20.890Z,53.66
2022-12-12T12:38:57.913Z,52.25
2022-12-12T12:41:38.443Z,51.71
2022-12-12T12:44:20.451Z,52.92
2022-12-12T12:46:56.731Z,51.06
2022-12-12T12:49:28.523Z,53.13
2022-12-12T12:52:00.299Z,52.42
2022-12-12T12:54:32.176Z,53.47
2022-12-12T12:57:06.400Z,53.49
2022-12-12T12:59:38.067Z,51.02
2022-12-12T13:02:21.152Z,51.33
2022-12-12T13:04:58.180Z,51.06
2022-12-12T13:07:40.646Z,51.89
2022-12-12T13:10:16.970Z,53.11
2022-12-12T13:12:49.100Z,52.19
2022-12-12T13:15:23.546Z,52.92
2022-12-12T13:17:58.524Z,52.19
2022-12-12T13:20:27.473Z,53.23
2022-12-12T13:23:13.455Z,53.80
2022-12-12T13:25:50.722Z,53.71
2022-12-12T13:28:22.578Z,51.91
2022-12-12T13:31:12.975Z,52.99
2022-12-12T13:33:46.604Z,53.12
2022-12-12T13:36:23.247Z,52.53
2022-12-12T13:38:59.182Z,49.28
2022-12-12T13:41:26.892Z,50.88
2022-12-12T13:43:58.874Z,51.14
2022-12-12T13:46:39.004Z,51.55
2022-12-12T13:49:29.535Z,52.32
2022-12-12T13:52:25.308Z,52.68
2022-12-12T13:54:56.922Z,53.30
2022-12-12T13:57:27.820Z,52.94
2022-12-12T14:00:21.260Z,52.80
2022-12-12T14:03:06.321Z,52.71
2022-12-12T14:05:36.973Z,53.17
2022-12-12T14:08:08.904Z,52.27
2022-12-12T14:10:43.384Z,52.86
2022-12-12T14:13:27.150Z,53.40
2022-12-12T14:16:03.486Z,53.31
2022-12-12T14:18:34.589Z,53.79
2022-12-12T14:21:04.281Z,54.66
2022-12-12T14:23:34.353Z,54.52
2022-12-12T14:26:41.192Z,53.97
2022-12-12T14:29:26.318Z,54.10
2022-12-12T14:32:03.351Z,53.76
2022-12-12T14:34:40.436Z,53.64
2022-12-12T14:37:30.464Z,53.60
2022-12-12T14:40:03.750Z,54.28
2022-12-12T14:43:20.521Z,53.82
2022-12-12T14:45:37.391Z,53.75
2022-12-12T14:48:14.736Z,54.27
2022-12-12T14:50:47.580Z,54.54
2022-12-12T14:53:18.070Z,54.39
2022-12-12T14:55:54.353Z,54.95
2022-12-12T14:58:27.426Z,54.14
2022-12-12T15:00:58.166Z,54.73
2022-12-12T15:03:34.458Z,54.94
2022-12-12T15:06:35.070Z,55.12
2022-12-12T15:09:16.083Z,55.21
2022-12-12T15:11:44.528Z,55.53
2022-12-12T15:14:20.366Z,55.54
2022-12-12T15:16:53.407Z,55.77
2022-12-12T15:19:26.200Z,55.49
2022-12-12T15:21:54.146Z,55.64
2022-12-12T15:24:23.923Z,55.58
2022-12-12T15:26:54.982Z,56.37
2022-12-12T15:29:27.367Z,55.81
2022-12-12T15:32:01.990Z,55.70
2022-12-12T15:34:40.100Z,56.15
2022-12-12T15:37:42.582Z,55.79
2022-12-12T15:40:26.695Z,55.83
2022-12-12T15:43:03.880Z,56.16
2022-12-12T15:45:46.120Z,55.84
2022-12-12T15:48:16.898Z,56.27
2022-12-12T15:51:02.815Z,56.63
2022-12-12T15:53:40.001Z,56.31
2022-12-12T15:56:20.565Z,57.23
2022-12-12T15:58:55.091Z,56.78
2022-12-12T16:01:36.960Z,55.77
2022-12-12T16:04:31.377Z,56.14
2022-12-12T16:07:24.950Z,56.71
2022-12-12T16:10:09.409Z,56.54
2022-12-12T16:13:08.320Z,56.71
2022-12-12T16:15:47.651Z,54.78
2022-12-12T16:18:36.703Z,53.72
2022-12-12T16:21:12.968Z,54.79
2022-12-12T16:23:51.484Z,53.77
2022-12-12T16:26:25.428Z,53.15
2022-12-12T16:29:03.090Z,53.58
2022-12-12T16:31:53.311Z,52.24
2022-12-12T16:34:27.502Z,54.21
2022-12-12T16:37:07.453Z,53.88
2022-12-12T16:39:43.313Z,53.25
2022-12-12T16:42:19.875Z,53.25
2022-12-12T16:44:47.763Z,54.54
2022-12-12T16:51:03.670Z,54.18
2022-12-12T16:53:33.357Z,55.00
2022-12-12T16:56:02.306Z,53.08
2022-12-12T16:58:39.011Z,53.14
2022-12-12T17:01:08.451Z,54.96
2022-12-12T17:03:36.081Z,55.15
2022-12-12T17:06:05.316Z,56.07
2022-12-12T17:08:33.002Z,55.89
2022-12-12T17:11:09.388Z,56.24
2022-12-12T17:13:38.871Z,55.43
2022-12-12T17:16:06.879Z,55.12
2022-12-12T17:18:34.713Z,55.91
2022-12-12T17:21:02.304Z,56.01
2022-12-12T17:23:31.499Z,55.62
2022-12-12T17:26:04.025Z,55.49
2022-12-12T17:28:36.429Z,56.15
2022-12-12T17:34:25.823Z,56.99
2022-12-12T17:36:53.627Z,57.13
2022-12-12T17:39:23.043Z,55.43
2022-12-12T17:42:00.976Z,56.01
2022-12-12T17:44:28.613Z,57.19
2022-12-12T17:46:56.336Z,57.61
2022-12-12T17:49:24.021Z,56.49
2022-12-12T17:55:51.409Z,55.20
2022-12-12T17:58:22.825Z,55.27
2022-12-12T18:00:52.889Z,56.08
2022-12-12T18:03:20.644Z,55.40
2022-12-12T18:05:48.469Z,55.87
2022-12-12T18:08:16.299Z,55.83
2022-12-12T18:10:45.426Z,55.88
2022-12-12T18:13:13.903Z,55.49
2022-12-12T18:15:42.281Z,56.22
2022-12-12T18:20:57.330Z,56.89
2022-12-12T18:23:24.993Z,57.23
2022-12-12T18:25:53.975Z,56.34
2022-12-12T18:28:21.585Z,55.64
2022-12-12T18:30:50.117Z,55.57
2022-12-12T18:33:17.762Z,55.85
2022-12-12T18:35:45.471Z,56.57
2022-12-12T18:38:13.083Z,55.82
2022-12-12T18:40:40.758Z,56.35
2022-12-12T18:43:10.071Z,55.68
2022-12-12T18:45:37.817Z,55.94
2022-12-12T18:48:05.839Z,54.70
2022-12-12T18:50:33.908Z,55.69
2022-12-12T18:53:01.468Z,56.40
2022-12-12T18:55:30.377Z,55.95
2022-12-12T18:57:58.262Z,55.37
2022-12-12T19:00:40.927Z,55.62
2022-12-12T19:03:09.030Z,56.05
2022-12-12T19:05:44.132Z,55.74
2022-12-12T19:08:12.121Z,55.99
2022-12-12T19:10:40.813Z,55.63
2022-12-12T19:13:08.511Z,56.32
2022-12-12T19:15:37.572Z,55.84
2022-12-12T19:18:05.753Z,55.86
2022-12-12T19:20:33.631Z,55.37
2022-12-12T19:23:02.885Z,55.58
2022-12-12T19:25:39.190Z,56.11
2022-12-12T19:28:27.132Z,56.08
2022-12-12T19:30:56.207Z,56.20
2022-12-12T19:33:23.898Z,55.89
2022-12-12T19:35:51.597Z,57.06
2022-12-12T19:38:24.272Z,56.58
2022-12-12T19:40:53.611Z,56.64
2022-12-12T19:43:21.418Z,56.57
2022-12-12T19:45:49.091Z,55.18
2022-12-12T19:48:18.196Z,56.07
2022-12-12T19:50:45.864Z,54.20
2022-12-12T19:53:15.820Z,54.32
2022-12-12T19:55:47.721Z,54.14
2022-12-12T19:58:26.495Z,54.46
2022-12-12T20:00:56.956Z,54.28
2022-12-12T20:03:26.696Z,54.88
2022-12-12T20:06:01.541Z,56.12
2022-12-12T20:08:30.085Z,55.66
2022-12-12T20:11:06.596Z,56.32
2022-12-12T20:13:34.932Z,56.71
2022-12-12T20:16:07.124Z,55.88
2022-12-12T20:18:49.620Z,55.39
2022-12-12T20:21:43.467Z,55.16
2022-12-12T20:24:07.197Z,56.33
2022-12-12T20:26:35.036Z,56.32
2022-12-12T20:29:03.271Z,55.02
2022-12-12T20:31:33.395Z,55.88
2022-12-12T20:34:02.826Z,55.59
2022-12-12T20:36:32.446Z,56.98
2022-12-12T20:39:01.930Z,56.05
2022-12-12T20:41:31.782Z,54.79
2022-12-12T20:44:03.601Z,54.30
2022-12-12T20:46:36.346Z,55.65
2022-12-12T20:49:09.214Z,55.94
2022-12-12T20:54:25.579Z,55.89
2022-12-12T20:56:58.373Z,55.84
2022-12-12T20:59:30.513Z,55.58
2022-12-12T21:01:58.267Z,54.26
2022-12-12T21:04:28.195Z,54.15
2022-12-12T21:06:55.880Z,54.61
2022-12-12T21:09:26.393Z,55.37
2022-12-12T21:11:56.175Z,55.58
2022-12-12T21:14:24.216Z,55.97
2022-12-12T21:16:51.990Z,56.20
2022-12-12T21:19:21.101Z,56.40
2022-12-12T21:21:55.256Z,55.04
2022-12-12T21:24:42.794Z,56.06
2022-12-12T21:27:14.924Z,56.13
2022-12-12T21:29:45.134Z,55.33
2022-12-12T21:32:12.737Z,55.96
2022-12-12T21:34:41.519Z,55.55
2022-12-12T21:37:13.444Z,54.97
2022-12-12T21:39:42.247Z,55.21
2022-12-12T21:42:09.898Z,55.19
2022-12-12T21:44:45.394Z,55.06
2022-12-12T21:47:13.625Z,54.75
2022-12-12T21:49:41.467Z,54.99
2022-12-12T21:52:12.068Z,56.15
2022-12-12T21:54:57.180Z,56.16
2022-12-12T21:57:32.587Z,54.71
2022-12-12T22:00:10.388Z,54.75
2022-12-12T22:02:44.781Z,56.70
2022-12-12T22:05:16.379Z,56.38
2022-12-12T22:07:45.757Z,56.17
2022-12-12T22:10:13.417Z,55.46
2022-12-12T22:12:43.062Z,55.50
2022-12-12T22:15:27.520Z,56.68
2022-12-12T22:17:55.511Z,57.55
2022-12-12T22:20:23.130Z,57.23
2022-12-12T22:22:52.147Z,56.69
2022-12-12T22:25:22.472Z,56.34
2022-12-12T22:27:50.120Z,56.83
2022-12-12T22:30:17.785Z,56.32
2022-12-12T22:32:49.268Z,55.60
2022-12-12T22:35:20.600Z,54.62
2022-12-12T22:37:49.787Z,54.93
2022-12-12T22:40:18.976Z,54.91
2022-12-12T22:42:49.287Z,54.85
2022-12-12T22:45:17.255Z,55.58
2022-12-12T22:47:45.055Z,55.95
2022-12-12T22:50:12.721Z,55.78
2022-12-12T22:52:40.394Z,55.02
2022-12-12T22:55:08.752Z,54.32
2022-12-12T22:57:37.715Z,56.15
2022-12-12T23:00:10.348Z,56.46
2022-12-12T23:02:38.006Z,56.99
2022-12-12T23:05:05.900Z,56.39
2022-12-12T23:07:33.646Z,56.80
2022-12-12T23:10:02.437Z,56.74
2022-12-12T23:12:30.328Z,56.38
2022-12-12T23:14:59.294Z,56.62
2022-12-12T23:17:26.942Z,55.30
2022-12-12T23:19:54.593Z,55.57
2022-12-12T23:22:22.512Z,55.09
2022-12-12T23:24:50.201Z,55.13
2022-12-12T23:27:17.864Z,55.82
2022-12-12T23:29:45.466Z,55.48
2022-12-12T23:32:14.485Z,56.46
2022-12-12T23:34:42.157Z,56.42
2022-12-12T23:37:10.084Z,56.43
2022-12-12T23:39:37.732Z,57.06
2022-12-12T23:42:05.552Z,57.20
2022-12-12T23:44:33.294Z,58.35
2022-12-12T23:47:00.923Z,57.73
2022-12-12T23:49:29.986Z,56.87
2022-12-12T23:51:59.812Z,56.23
2022-12-12T23:54:32.001Z,56.08
2022-12-12T23:57:00.154Z,55.55
2022-12-12T23:59:28.071Z,55.17
